sensor_id;sensor_type;location;lat;lon;timestamp;pressure;altitude;pressure_sealevel;temperature;humidity
57847;BME280;43675;50.030;21.952;2023-02-14T00:02:24;100227.60;;;2.75;74.92
57847;BME280;43675;50.030;21.952;2023-02-14T00:04:50;100234.05;;;2.74;75.07
57847;BME280;43675;50.030;21.952;2023-02-14T00:07:17;100228.48;;;2.73;75.20
57847;BME280;43675;50.030;21.952;2023-02-14T00:09:43;100230.23;;;2.74;75.12
57847;BME280;43675;50.030;21.952;2023-02-14T00:12:10;100230.88;;;2.74;75.12
57847;BME280;43675;50.030;21.952;2023-02-14T00:14:36;100227.86;;;2.74;75.09
57847;BME280;43675;50.030;21.952;2023-02-14T00:17:03;100228.31;;;2.75;74.95
57847;BME280;43675;50.030;21.952;2023-02-14T00:19:30;100230.98;;;2.75;75.18
57847;BME280;43675;50.030;21.952;2023-02-14T00:21:56;100230.75;;;2.76;75.13
57847;BME280;43675;50.030;21.952;2023-02-14T00:24:25;100238.08;;;2.77;75.28
57847;BME280;43675;50.030;21.952;2023-02-14T00:26:52;100240.90;;;2.77;75.16
57847;BME280;43675;50.030;21.952;2023-02-14T00:29:25;100229.07;;;2.77;75.24
57847;BME280;43675;50.030;21.952;2023-02-14T00:31:52;100225.48;;;2.77;75.26
57847;BME280;43675;50.030;21.952;2023-02-14T00:34:19;100228.19;;;2.79;75.10
57847;BME280;43675;50.030;21.952;2023-02-14T00:36:47;100227.20;;;2.80;74.95
57847;BME280;43675;50.030;21.952;2023-02-14T00:39:14;100231.05;;;2.80;75.31
57847;BME280;43675;50.030;21.952;2023-02-14T00:41:41;100226.27;;;2.80;75.13
57847;BME280;43675;50.030;21.952;2023-02-14T00:44:09;100228.99;;;2.82;74.91
57847;BME280;43675;50.030;21.952;2023-02-14T00:46:36;100224.44;;;2.81;74.96
57847;BME280;43675;50.030;21.952;2023-02-14T00:49:03;100220.30;;;2.80;74.96
57847;BME280;43675;50.030;21.952;2023-02-14T00:51:30;100221.66;;;2.78;74.86
57847;BME280;43675;50.030;21.952;2023-02-14T00:53:57;100214.80;;;2.78;74.82
57847;BME280;43675;50.030;21.952;2023-02-14T00:56:24;100214.90;;;2.79;74.93
57847;BME280;43675;50.030;21.952;2023-02-14T00:58:51;100217.22;;;2.81;75.31
57847;BME280;43675;50.030;21.952;2023-02-14T01:01:18;100215.39;;;2.82;74.85
57847;BME280;43675;50.030;21.952;2023-02-14T01:03:45;100214.02;;;2.81;74.94
57847;BME280;43675;50.030;21.952;2023-02-14T01:06:11;100212.02;;;2.80;74.72
57847;BME280;43675;50.030;21.952;2023-02-14T01:08:38;100220.86;;;2.80;74.89
57847;BME280;43675;50.030;21.952;2023-02-14T01:11:13;100218.27;;;2.79;74.70
57847;BME280;43675;50.030;21.952;2023-02-14T01:13:41;100214.92;;;2.79;74.96
57847;BME280;43675;50.030;21.952;2023-02-14T01:16:12;100218.38;;;2.80;74.81
57847;BME280;43675;50.030;21.952;2023-02-14T01:18:39;100212.20;;;2.82;74.88
57847;BME280;43675;50.030;21.952;2023-02-14T01:21:17;100210.56;;;2.83;74.70
57847;BME280;43675;50.030;21.952;2023-02-14T01:23:45;100210.50;;;2.83;74.88
57847;BME280;43675;50.030;21.952;2023-02-14T01:26:13;100211.36;;;2.83;74.43
57847;BME280;43675;50.030;21.952;2023-02-14T01:28:41;100203.67;;;2.84;74.39
57847;BME280;43675;50.030;21.952;2023-02-14T01:31:14;100197.23;;;2.85;74.61
57847;BME280;43675;50.030;21.952;2023-02-14T01:33:43;100194.44;;;2.85;74.69
57847;BME280;43675;50.030;21.952;2023-02-14T01:36:22;100200.88;;;2.86;74.35
57847;BME280;43675;50.030;21.952;2023-02-14T01:38:57;100197.96;;;2.87;74.41
57847;BME280;43675;50.030;21.952;2023-02-14T01:41:26;100190.13;;;2.88;74.40
57847;BME280;43675;50.030;21.952;2023-02-14T01:44:03;100193.30;;;2.86;74.15
57847;BME280;43675;50.030;21.952;2023-02-14T01:46:33;100190.30;;;2.84;74.39
57847;BME280;43675;50.030;21.952;2023-02-14T01:49:14;100195.54;;;2.82;74.25
57847;BME280;43675;50.030;21.952;2023-02-14T01:51:46;100189.73;;;2.82;74.50
57847;BME280;43675;50.030;21.952;2023-02-14T01:54:16;100190.78;;;2.84;74.43
57847;BME280;43675;50.030;21.952;2023-02-14T01:56:48;100192.05;;;2.84;74.59
57847;BME280;43675;50.030;21.952;2023-02-14T01:59:20;100190.41;;;2.82;74.56
57847;BME280;43675;50.030;21.952;2023-02-14T02:01:48;100189.62;;;2.81;74.34
57847;BME280;43675;50.030;21.952;2023-02-14T02:04:19;100188.27;;;2.83;74.24
57847;BME280;43675;50.030;21.952;2023-02-14T02:06:51;100189.34;;;2.82;74.04
57847;BME280;43675;50.030;21.952;2023-02-14T02:09:29;100188.54;;;2.82;74.53
57847;BME280;43675;50.030;21.952;2023-02-14T02:11:56;100187.77;;;2.82;74.15
57847;BME280;43675;50.030;21.952;2023-02-14T02:14:23;100186.03;;;2.84;74.45
57847;BME280;43675;50.030;21.952;2023-02-14T02:19:53;100183.52;;;2.80;74.36
57847;BME280;43675;50.030;21.952;2023-02-14T02:39:21;100202.58;;;2.72;74.53
57847;BME280;43675;50.030;21.952;2023-02-14T02:47:32;100217.42;;;2.76;74.50
57847;BME280;43675;50.030;21.952;2023-02-14T02:52:48;100221.65;;;2.77;74.28
57847;BME280;43675;50.030;21.952;2023-02-14T02:55:51;100224.95;;;2.75;74.56
57847;BME280;43675;50.030;21.952;2023-02-14T02:58:21;100223.07;;;2.77;74.47
57847;BME280;43675;50.030;21.952;2023-02-14T03:00:51;100218.20;;;2.80;74.47
57847;BME280;43675;50.030;21.952;2023-02-14T03:03:23;100218.54;;;2.80;74.30
57847;BME280;43675;50.030;21.952;2023-02-14T03:05:51;100223.35;;;2.82;74.49
57847;BME280;43675;50.030;21.952;2023-02-14T03:08:17;100226.26;;;2.81;74.17
57847;BME280;43675;50.030;21.952;2023-02-14T03:10:44;100227.70;;;2.80;74.39
57847;BME280;43675;50.030;21.952;2023-02-14T03:21:15;100238.73;;;2.81;74.23
57847;BME280;43675;50.030;21.952;2023-02-14T03:32:16;100239.52;;;2.87;74.11
57847;BME280;43675;50.030;21.952;2023-02-14T03:37:34;100240.88;;;2.88;74.38
57847;BME280;43675;50.030;21.952;2023-02-14T03:40:25;100240.57;;;2.87;74.25
57847;BME280;43675;50.030;21.952;2023-02-14T03:43:00;100243.06;;;2.87;74.25
57847;BME280;43675;50.030;21.952;2023-02-14T03:45:51;100238.05;;;2.88;73.85
57847;BME280;43675;50.030;21.952;2023-02-14T03:48:22;100233.52;;;2.89;74.25
57847;BME280;43675;50.030;21.952;2023-02-14T03:50:51;100236.35;;;2.91;74.18
57847;BME280;43675;50.030;21.952;2023-02-14T03:53:22;100223.87;;;2.91;74.29
57847;BME280;43675;50.030;21.952;2023-02-14T03:58:27;100230.77;;;2.92;74.31
57847;BME280;43675;50.030;21.952;2023-02-14T04:01:01;100229.54;;;2.93;74.25
57847;BME280;43675;50.030;21.952;2023-02-14T04:03:31;100230.33;;;2.94;74.43
57847;BME280;43675;50.030;21.952;2023-02-14T04:05:59;100230.83;;;2.94;74.03
57847;BME280;43675;50.030;21.952;2023-02-14T04:08:28;100227.38;;;2.93;74.10
57847;BME280;43675;50.030;21.952;2023-02-14T04:10:56;100232.92;;;2.92;74.39
57847;BME280;43675;50.030;21.952;2023-02-14T04:13:25;100233.13;;;2.92;74.50
57847;BME280;43675;50.030;21.952;2023-02-14T04:15:51;100232.39;;;2.90;74.35
57847;BME280;43675;50.030;21.952;2023-02-14T04:18:18;100231.84;;;2.88;74.35
57847;BME280;43675;50.030;21.952;2023-02-14T04:20:44;100235.96;;;2.87;74.52
57847;BME280;43675;50.030;21.952;2023-02-14T04:23:11;100239.02;;;2.87;74.32
57847;BME280;43675;50.030;21.952;2023-02-14T04:25:37;100236.96;;;2.86;74.25
57847;BME280;43675;50.030;21.952;2023-02-14T04:28:04;100242.09;;;2.86;74.19
57847;BME280;43675;50.030;21.952;2023-02-14T04:30:31;100241.45;;;2.85;74.28
57847;BME280;43675;50.030;21.952;2023-02-14T04:32:57;100245.02;;;2.85;74.16
57847;BME280;43675;50.030;21.952;2023-02-14T04:35:24;100242.36;;;2.85;74.30
57847;BME280;43675;50.030;21.952;2023-02-14T04:37:50;100244.59;;;2.83;74.38
57847;BME280;43675;50.030;21.952;2023-02-14T04:40:17;100243.55;;;2.83;74.38
57847;BME280;43675;50.030;21.952;2023-02-14T04:42:45;100248.08;;;2.84;74.54
57847;BME280;43675;50.030;21.952;2023-02-14T04:45:12;100241.30;;;2.85;74.22
57847;BME280;43675;50.030;21.952;2023-02-14T04:47:39;100236.99;;;2.88;74.42
57847;BME280;43675;50.030;21.952;2023-02-14T04:50:06;100232.17;;;2.88;74.22
57847;BME280;43675;50.030;21.952;2023-02-14T04:52:33;100233.45;;;2.88;74.39
57847;BME280;43675;50.030;21.952;2023-02-14T04:54:59;100225.46;;;2.88;74.19
57847;BME280;43675;50.030;21.952;2023-02-14T04:57:26;100225.34;;;2.88;74.35
57847;BME280;43675;50.030;21.952;2023-02-14T04:59:53;100223.55;;;2.88;74.14
57847;BME280;43675;50.030;21.952;2023-02-14T05:02:19;100224.02;;;2.89;74.35
57847;BME280;43675;50.030;21.952;2023-02-14T05:04:46;100228.09;;;2.86;74.29
57847;BME280;43675;50.030;21.952;2023-02-14T05:07:13;100232.80;;;2.85;74.47
57847;BME280;43675;50.030;21.952;2023-02-14T05:09:40;100232.89;;;2.84;74.37
57847;BME280;43675;50.030;21.952;2023-02-14T05:12:06;100233.05;;;2.84;74.52
57847;BME280;43675;50.030;21.952;2023-02-14T05:14:33;100233.23;;;2.84;74.65
57847;BME280;43675;50.030;21.952;2023-02-14T05:17:00;100238.31;;;2.84;74.48
57847;BME280;43675;50.030;21.952;2023-02-14T05:19:26;100231.95;;;2.84;74.37
57847;BME280;43675;50.030;21.952;2023-02-14T05:21:53;100231.51;;;2.85;74.61
57847;BME280;43675;50.030;21.952;2023-02-14T05:24:19;100237.67;;;2.86;74.31
57847;BME280;43675;50.030;21.952;2023-02-14T05:26:46;100238.20;;;2.84;74.50
57847;BME280;43675;50.030;21.952;2023-02-14T05:29:13;100239.13;;;2.83;74.61
57847;BME280;43675;50.030;21.952;2023-02-14T05:31:39;100242.77;;;2.84;74.64
57847;BME280;43675;50.030;21.952;2023-02-14T05:34:06;100246.63;;;2.84;74.43
57847;BME280;43675;50.030;21.952;2023-02-14T05:36:32;100244.29;;;2.83;74.65
57847;BME280;43675;50.030;21.952;2023-02-14T05:38:59;100239.61;;;2.82;74.69
57847;BME280;43675;50.030;21.952;2023-02-14T05:41:26;100241.94;;;2.81;74.72
57847;BME280;43675;50.030;21.952;2023-02-14T05:43:52;100248.16;;;2.81;74.74
57847;BME280;43675;50.030;21.952;2023-02-14T05:46:19;100247.85;;;2.80;74.56
57847;BME280;43675;50.030;21.952;2023-02-14T05:48:45;100250.94;;;2.79;74.77
57847;BME280;43675;50.030;21.952;2023-02-14T05:51:12;100260.00;;;2.79;74.85
57847;BME280;43675;50.030;21.952;2023-02-14T05:53:39;100257.57;;;2.80;75.00
57847;BME280;43675;50.030;21.952;2023-02-14T05:56:06;100259.13;;;2.81;74.86
57847;BME280;43675;50.030;21.952;2023-02-14T05:58:32;100264.96;;;2.81;74.92
57847;BME280;43675;50.030;21.952;2023-02-14T06:00:59;100268.13;;;2.81;74.76
57847;BME280;43675;50.030;21.952;2023-02-14T06:03:26;100268.60;;;2.82;74.83
57847;BME280;43675;50.030;21.952;2023-02-14T06:05:53;100274.55;;;2.82;75.03
57847;BME280;43675;50.030;21.952;2023-02-14T06:08:19;100278.79;;;2.85;75.13
57847;BME280;43675;50.030;21.952;2023-02-14T06:10:46;100278.40;;;2.85;74.79
57847;BME280;43675;50.030;21.952;2023-02-14T06:13:13;100279.21;;;2.86;74.56
57847;BME280;43675;50.030;21.952;2023-02-14T06:15:40;100278.60;;;2.89;74.87
57847;BME280;43675;50.030;21.952;2023-02-14T06:18:06;100276.40;;;2.92;74.88
57847;BME280;43675;50.030;21.952;2023-02-14T06:20:33;100284.67;;;2.95;74.80
57847;BME280;43675;50.030;21.952;2023-02-14T06:23:00;100282.38;;;2.97;74.65
57847;BME280;43675;50.030;21.952;2023-02-14T06:25:27;100282.25;;;2.99;74.69
57847;BME280;43675;50.030;21.952;2023-02-14T06:27:57;100283.20;;;3.00;74.57
57847;BME280;43675;50.030;21.952;2023-02-14T06:30:24;100288.98;;;3.03;74.83
57847;BME280;43675;50.030;21.952;2023-02-14T06:32:51;100291.39;;;3.05;74.69
57847;BME280;43675;50.030;21.952;2023-02-14T06:35:18;100289.91;;;3.06;74.48
57847;BME280;43675;50.030;21.952;2023-02-14T06:37:45;100290.77;;;3.08;74.61
57847;BME280;43675;50.030;21.952;2023-02-14T06:40:12;100289.80;;;3.12;74.31
57847;BME280;43675;50.030;21.952;2023-02-14T06:42:39;100291.98;;;3.15;74.36
57847;BME280;43675;50.030;21.952;2023-02-14T06:45:06;100295.61;;;3.18;74.75
57847;BME280;43675;50.030;21.952;2023-02-14T06:47:32;100287.55;;;3.19;74.56
57847;BME280;43675;50.030;21.952;2023-02-14T06:49:59;100283.99;;;3.21;74.32
57847;BME280;43675;50.030;21.952;2023-02-14T06:52:26;100289.48;;;3.23;74.32
57847;BME280;43675;50.030;21.952;2023-02-14T06:54:52;100285.69;;;3.24;74.45
57847;BME280;43675;50.030;21.952;2023-02-14T06:57:19;100288.05;;;3.26;74.22
57847;BME280;43675;50.030;21.952;2023-02-14T06:59:45;100285.59;;;3.28;74.39
57847;BME280;43675;50.030;21.952;2023-02-14T07:02:12;100285.21;;;3.30;74.03
57847;BME280;43675;50.030;21.952;2023-02-14T07:04:39;100290.05;;;3.36;74.17
57847;BME280;43675;50.030;21.952;2023-02-14T07:07:05;100290.60;;;3.40;74.31
57847;BME280;43675;50.030;21.952;2023-02-14T07:09:32;100288.89;;;3.39;74.40
57847;BME280;43675;50.030;21.952;2023-02-14T07:11:58;100288.81;;;3.38;74.29
57847;BME280;43675;50.030;21.952;2023-02-14T07:14:25;100286.96;;;3.39;74.13
57847;BME280;43675;50.030;21.952;2023-02-14T07:16:52;100281.86;;;3.41;74.30
57847;BME280;43675;50.030;21.952;2023-02-14T07:19:18;100278.97;;;3.43;74.11
57847;BME280;43675;50.030;21.952;2023-02-14T07:21:45;100277.77;;;3.47;74.02
57847;BME280;43675;50.030;21.952;2023-02-14T07:24:14;100281.48;;;3.51;73.92
57847;BME280;43675;50.030;21.952;2023-02-14T07:26:41;100280.27;;;3.53;74.33
57847;BME280;43675;50.030;21.952;2023-02-14T07:29:07;100278.63;;;3.57;74.06
57847;BME280;43675;50.030;21.952;2023-02-14T07:31:34;100276.09;;;3.62;74.14
57847;BME280;43675;50.030;21.952;2023-02-14T07:34:00;100276.81;;;3.64;73.94
57847;BME280;43675;50.030;21.952;2023-02-14T07:36:27;100277.56;;;3.64;73.90
57847;BME280;43675;50.030;21.952;2023-02-14T07:38:57;100283.09;;;3.65;74.06
57847;BME280;43675;50.030;21.952;2023-02-14T07:41:23;100280.31;;;3.66;73.76
57847;BME280;43675;50.030;21.952;2023-02-14T07:43:50;100282.51;;;3.70;73.75
57847;BME280;43675;50.030;21.952;2023-02-14T07:46:16;100285.45;;;3.72;73.59
57847;BME280;43675;50.030;21.952;2023-02-14T07:48:43;100284.78;;;3.76;73.43
57847;BME280;43675;50.030;21.952;2023-02-14T07:51:09;100284.50;;;3.82;73.58
57847;BME280;43675;50.030;21.952;2023-02-14T07:53:36;100286.19;;;3.85;73.40
57847;BME280;43675;50.030;21.952;2023-02-14T07:56:03;100296.45;;;3.87;73.59
57847;BME280;43675;50.030;21.952;2023-02-14T07:58:29;100294.32;;;3.87;73.29
57847;BME280;43675;50.030;21.952;2023-02-14T08:00:56;100293.70;;;3.88;73.21
57847;BME280;43675;50.030;21.952;2023-02-14T08:03:22;100291.13;;;3.89;73.32
57847;BME280;43675;50.030;21.952;2023-02-14T08:05:49;100294.69;;;3.93;73.16
57847;BME280;43675;50.030;21.952;2023-02-14T08:08:16;100293.60;;;3.95;73.03
57847;BME280;43675;50.030;21.952;2023-02-14T08:10:42;100302.14;;;3.95;73.23
57847;BME280;43675;50.030;21.952;2023-02-14T08:13:09;100301.59;;;3.97;73.32
57847;BME280;43675;50.030;21.952;2023-02-14T08:15:35;100300.05;;;4.00;73.12
57847;BME280;43675;50.030;21.952;2023-02-14T08:18:02;100299.83;;;4.03;73.13
57847;BME280;43675;50.030;21.952;2023-02-14T08:20:29;100304.45;;;4.04;72.81
57847;BME280;43675;50.030;21.952;2023-02-14T08:22:55;100303.45;;;4.06;73.00
57847;BME280;43675;50.030;21.952;2023-02-14T08:25:22;100307.11;;;4.04;72.94
57847;BME280;43675;50.030;21.952;2023-02-14T08:27:49;100309.55;;;4.05;73.12
57847;BME280;43675;50.030;21.952;2023-02-14T08:30:15;100304.45;;;4.04;72.88
57847;BME280;43675;50.030;21.952;2023-02-14T08:32:42;100304.61;;;4.04;72.91
57847;BME280;43675;50.030;21.952;2023-02-14T08:35:09;100304.83;;;4.06;72.86
57847;BME280;43675;50.030;21.952;2023-02-14T08:37:35;100301.58;;;4.07;73.02
57847;BME280;43675;50.030;21.952;2023-02-14T08:40:02;100307.23;;;4.07;72.76
57847;BME280;43675;50.030;21.952;2023-02-14T08:42:29;100313.42;;;4.07;72.83
57847;BME280;43675;50.030;21.952;2023-02-14T08:44:55;100320.13;;;4.07;72.70
57847;BME280;43675;50.030;21.952;2023-02-14T08:47:22;100322.02;;;4.10;72.80
57847;BME280;43675;50.030;21.952;2023-02-14T08:49:48;100324.95;;;4.15;72.64
57847;BME280;43675;50.030;21.952;2023-02-14T08:52:15;100318.60;;;4.23;72.62
57847;BME280;43675;50.030;21.952;2023-02-14T08:54:41;100320.69;;;4.29;72.20
57847;BME280;43675;50.030;21.952;2023-02-14T08:57:08;100321.50;;;4.34;72.53
57847;BME280;43675;50.030;21.952;2023-02-14T08:59:34;100323.63;;;4.40;72.69
57847;BME280;43675;50.030;21.952;2023-02-14T09:02:01;100327.37;;;4.46;72.16
57847;BME280;43675;50.030;21.952;2023-02-14T09:04:28;100331.31;;;4.53;72.14
57847;BME280;43675;50.030;21.952;2023-02-14T09:06:54;100328.61;;;4.59;72.22
57847;BME280;43675;50.030;21.952;2023-02-14T09:09:21;100331.63;;;4.65;72.09
57847;BME280;43675;50.030;21.952;2023-02-14T09:11:47;100333.82;;;4.69;71.91
57847;BME280;43675;50.030;21.952;2023-02-14T09:14:14;100336.42;;;4.67;71.70
57847;BME280;43675;50.030;21.952;2023-02-14T09:16:40;100335.46;;;4.66;71.52
57847;BME280;43675;50.030;21.952;2023-02-14T09:19:07;100332.27;;;4.64;71.57
57847;BME280;43675;50.030;21.952;2023-02-14T09:21:33;100333.84;;;4.66;71.54
57847;BME280;43675;50.030;21.952;2023-02-14T09:24:00;100333.70;;;4.68;71.81
57847;BME280;43675;50.030;21.952;2023-02-14T09:26:27;100331.95;;;4.71;71.54
57847;BME280;43675;50.030;21.952;2023-02-14T09:28:53;100335.96;;;4.78;71.56
57847;BME280;43675;50.030;21.952;2023-02-14T09:31:23;100334.48;;;4.81;71.44
57847;BME280;43675;50.030;21.952;2023-02-14T09:33:50;100338.04;;;4.83;71.31
57847;BME280;43675;50.030;21.952;2023-02-14T09:36:19;100337.42;;;4.84;71.29
57847;BME280;43675;50.030;21.952;2023-02-14T09:38:45;100341.22;;;4.91;71.19
57847;BME280;43675;50.030;21.952;2023-02-14T09:46:52;100349.05;;;5.06;71.06
57847;BME280;43675;50.030;21.952;2023-02-14T09:49:37;100344.53;;;5.15;70.64
57847;BME280;43675;50.030;21.952;2023-02-14T09:52:08;100344.55;;;5.18;70.41
57847;BME280;43675;50.030;21.952;2023-02-14T09:54:39;100343.35;;;5.16;70.21
57847;BME280;43675;50.030;21.952;2023-02-14T10:00:17;100340.48;;;5.12;70.30
57847;BME280;43675;50.030;21.952;2023-02-14T10:05:42;100336.52;;;5.15;70.35
57847;BME280;43675;50.030;21.952;2023-02-14T10:08:36;100336.13;;;5.17;69.95
57847;BME280;43675;50.030;21.952;2023-02-14T10:11:13;100332.45;;;5.24;70.04
57847;BME280;43675;50.030;21.952;2023-02-14T10:16:23;100335.36;;;5.31;69.86
57847;BME280;43675;50.030;21.952;2023-02-14T10:21:44;100336.11;;;5.33;69.32
57847;BME280;43675;50.030;21.952;2023-02-14T10:24:22;100326.81;;;5.30;69.23
57847;BME280;43675;50.030;21.952;2023-02-14T10:26:52;100327.77;;;5.33;69.59
57847;BME280;43675;50.030;21.952;2023-02-14T10:29:21;100330.64;;;5.38;69.48
57847;BME280;43675;50.030;21.952;2023-02-14T10:31:58;100325.68;;;5.38;69.23
57847;BME280;43675;50.030;21.952;2023-02-14T10:34:35;100319.03;;;5.43;69.43
57847;BME280;43675;50.030;21.952;2023-02-14T10:46:12;100310.33;;;5.84;68.95
57847;BME280;43675;50.030;21.952;2023-02-14T10:49:01;100306.21;;;5.90;68.69
57847;BME280;43675;50.030;21.952;2023-02-14T10:51:43;100302.23;;;5.91;68.47
57847;BME280;43675;50.030;21.952;2023-02-14T10:54:21;100296.88;;;5.90;68.50
57847;BME280;43675;50.030;21.952;2023-02-14T10:56:59;100300.73;;;5.99;68.44
57847;BME280;43675;50.030;21.952;2023-02-14T10:59:53;100297.20;;;6.12;68.19
57847;BME280;43675;50.030;21.952;2023-02-14T11:02:30;100293.04;;;6.18;67.85
57847;BME280;43675;50.030;21.952;2023-02-14T11:04:58;100288.25;;;6.14;67.67
57847;BME280;43675;50.030;21.952;2023-02-14T11:07:25;100285.97;;;6.11;67.47
57847;BME280;43675;50.030;21.952;2023-02-14T11:09:52;100282.86;;;6.08;67.60
57847;BME280;43675;50.030;21.952;2023-02-14T11:12:37;100286.87;;;6.09;67.73
57847;BME280;43675;50.030;21.952;2023-02-14T11:15:10;100290.05;;;6.14;67.69
57847;BME280;43675;50.030;21.952;2023-02-14T11:17:37;100280.88;;;6.21;67.50
57847;BME280;43675;50.030;21.952;2023-02-14T11:20:22;100279.64;;;6.28;67.40
57847;BME280;43675;50.030;21.952;2023-02-14T11:22:49;100278.98;;;6.33;67.04
57847;BME280;43675;50.030;21.952;2023-02-14T11:25:30;100276.84;;;6.33;66.85
57847;BME280;43675;50.030;21.952;2023-02-14T11:28:04;100271.75;;;6.27;66.80
57847;BME280;43675;50.030;21.952;2023-02-14T11:30:41;100271.19;;;6.27;66.88
57847;BME280;43675;50.030;21.952;2023-02-14T11:33:12;100266.23;;;6.34;66.69
57847;BME280;43675;50.030;21.952;2023-02-14T11:35:51;100256.73;;;6.40;66.49
57847;BME280;43675;50.030;21.952;2023-02-14T11:38:30;100256.83;;;6.54;66.67
57847;BME280;43675;50.030;21.952;2023-02-14T11:40:58;100256.44;;;6.74;66.38
57847;BME280;43675;50.030;21.952;2023-02-14T11:43:34;100249.64;;;6.87;66.11
57847;BME280;43675;50.030;21.952;2023-02-14T11:48:33;100249.10;;;6.85;65.41
57847;BME280;43675;50.030;21.952;2023-02-14T11:53:28;100243.14;;;6.86;65.48
57847;BME280;43675;50.030;21.952;2023-02-14T11:55:57;100241.57;;;6.93;65.43
57847;BME280;43675;50.030;21.952;2023-02-14T12:00:59;100250.35;;;7.02;65.09
57847;BME280;43675;50.030;21.952;2023-02-14T12:03:38;100245.23;;;7.07;65.03
57847;BME280;43675;50.030;21.952;2023-02-14T12:06:08;100243.86;;;7.14;65.13
57847;BME280;43675;50.030;21.952;2023-02-14T12:08:35;100231.70;;;7.13;64.55
57847;BME280;43675;50.030;21.952;2023-02-14T12:11:19;100233.96;;;7.03;64.49
57847;BME280;43675;50.030;21.952;2023-02-14T12:13:53;100235.56;;;7.08;64.88
57847;BME280;43675;50.030;21.952;2023-02-14T12:16:32;100230.45;;;7.30;64.39
57847;BME280;43675;50.030;21.952;2023-02-14T12:21:50;100223.98;;;7.31;64.19
57847;BME280;43675;50.030;21.952;2023-02-14T12:24:37;100224.58;;;7.30;64.36
57847;BME280;43675;50.030;21.952;2023-02-14T12:27:27;100225.51;;;7.32;64.30
57847;BME280;43675;50.030;21.952;2023-02-14T12:30:19;100224.10;;;7.27;64.01
57847;BME280;43675;50.030;21.952;2023-02-14T12:32:48;100221.16;;;7.19;64.09
57847;BME280;43675;50.030;21.952;2023-02-14T12:59:22;100230.83;;;6.85;64.46
57847;BME280;43675;50.030;21.952;2023-02-14T13:06:58;100225.64;;;6.81;64.39
57847;BME280;43675;50.030;21.952;2023-02-14T13:09:44;100232.42;;;6.81;64.23
57847;BME280;43675;50.030;21.952;2023-02-14T13:12:36;100230.27;;;6.78;64.31
57847;BME280;43675;50.030;21.952;2023-02-14T13:20:55;100237.81;;;6.54;64.45
57847;BME280;43675;50.030;21.952;2023-02-14T13:23:29;100244.86;;;6.49;64.51
57847;BME280;43675;50.030;21.952;2023-02-14T13:26:06;100244.86;;;6.45;64.67
57847;BME280;43675;50.030;21.952;2023-02-14T13:28:36;100245.23;;;6.42;64.63
57847;BME280;43675;50.030;21.952;2023-02-14T13:31:03;100243.63;;;6.40;64.88
57847;BME280;43675;50.030;21.952;2023-02-14T13:33:34;100243.20;;;6.39;64.74
57847;BME280;43675;50.030;21.952;2023-02-14T13:36:06;100244.48;;;6.41;64.90
57847;BME280;43675;50.030;21.952;2023-02-14T13:38:45;100245.95;;;6.43;64.84
57847;BME280;43675;50.030;21.952;2023-02-14T13:41:14;100243.50;;;6.45;64.90
57847;BME280;43675;50.030;21.952;2023-02-14T13:43:54;100246.31;;;6.42;64.83
57847;BME280;43675;50.030;21.952;2023-02-14T13:46:44;100245.19;;;6.37;64.96
57847;BME280;43675;50.030;21.952;2023-02-14T13:51:58;100249.49;;;6.37;65.18
57847;BME280;43675;50.030;21.952;2023-02-14T13:54:42;100243.48;;;6.42;65.28
57847;BME280;43675;50.030;21.952;2023-02-14T13:57:31;100238.85;;;6.47;65.18
57847;BME280;43675;50.030;21.952;2023-02-14T14:02:52;100244.73;;;6.52;65.15
57847;BME280;43675;50.030;21.952;2023-02-14T14:10:51;100245.83;;;6.36;65.15
57847;BME280;43675;50.030;21.952;2023-02-14T14:19:34;100246.15;;;6.35;65.31
57847;BME280;43675;50.030;21.952;2023-02-14T14:24:30;100243.83;;;6.40;65.26
57847;BME280;43675;50.030;21.952;2023-02-14T14:27:14;100244.55;;;6.36;65.40
57847;BME280;43675;50.030;21.952;2023-02-14T14:30:14;100244.98;;;6.32;65.46
57847;BME280;43675;50.030;21.952;2023-02-14T14:32:43;100248.27;;;6.24;65.58
57847;BME280;43675;50.030;21.952;2023-02-14T14:35:19;100253.41;;;6.13;65.74
57847;BME280;43675;50.030;21.952;2023-02-14T14:37:51;100252.63;;;5.99;65.87
57847;BME280;43675;50.030;21.952;2023-02-14T14:42:56;100253.94;;;5.89;66.25
57847;BME280;43675;50.030;21.952;2023-02-14T14:45:28;100256.17;;;5.84;66.23
57847;BME280;43675;50.030;21.952;2023-02-14T14:47:57;100254.67;;;5.74;66.36
57847;BME280;43675;50.030;21.952;2023-02-14T14:50:31;100255.53;;;5.65;66.58
57847;BME280;43675;50.030;21.952;2023-02-14T14:53:05;100258.89;;;5.57;66.84
57847;BME280;43675;50.030;21.952;2023-02-14T14:55:35;100253.08;;;5.53;66.92
57847;BME280;43675;50.030;21.952;2023-02-14T14:58:05;100259.10;;;5.51;67.18
57847;BME280;43675;50.030;21.952;2023-02-14T15:00:36;100253.88;;;5.47;67.19
57847;BME280;43675;50.030;21.952;2023-02-14T15:03:15;100255.88;;;5.44;67.22
57847;BME280;43675;50.030;21.952;2023-02-14T15:05:48;100252.80;;;5.45;67.25
57847;BME280;43675;50.030;21.952;2023-02-14T15:08:27;100250.48;;;5.43;67.31
57847;BME280;43675;50.030;21.952;2023-02-14T15:10:57;100250.58;;;5.42;67.37
57847;BME280;43675;50.030;21.952;2023-02-14T15:13:32;100253.23;;;5.40;67.40
57847;BME280;43675;50.030;21.952;2023-02-14T15:16:01;100255.22;;;5.38;67.59
57847;BME280;43675;50.030;21.952;2023-02-14T15:18:28;100258.33;;;5.36;67.48
57847;BME280;43675;50.030;21.952;2023-02-14T15:20:55;100255.55;;;5.29;67.71
57847;BME280;43675;50.030;21.952;2023-02-14T15:23:23;100262.55;;;5.22;67.65
57847;BME280;43675;50.030;21.952;2023-02-14T15:25:50;100262.30;;;5.19;67.78
57847;BME280;43675;50.030;21.952;2023-02-14T15:28:31;100264.06;;;5.18;67.87
57847;BME280;43675;50.030;21.952;2023-02-14T15:31:01;100261.77;;;5.27;67.74